createdAt,value
2022-07-30T04:00:30.074Z,1005.20
2022-07-30T04:01:30.086Z,1005.14
2022-07-30T04:02:30.011Z,1005.15
2022-07-30T04:03:30.117Z,1005.23
2022-07-30T04:04:29.996Z,1005.24
2022-07-30T04:05:37.501Z,1005.16
2022-07-30T04:06:30.967Z,1005.22
2022-07-30T04:07:29.955Z,1005.18
2022-07-30T04:08:29.947Z,1005.17
2022-07-30T04:09:29.939Z,1005.22
2022-07-30T04:10:29.935Z,1005.22
2022-07-30T04:11:40.814Z,1005.17
2022-07-30T04:12:30.900Z,1005.17
2022-07-30T04:13:29.889Z,1005.19
2022-07-30T04:14:29.881Z,1005.13
2022-07-30T04:16:39.935Z,1005.19
2022-07-30T04:16:40.300Z,1005.16
2022-07-30T04:17:30.920Z,1005.20
2022-07-30T04:18:29.834Z,1005.23
2022-07-30T04:19:29.821Z,1005.20
2022-07-30T04:20:29.822Z,1005.19
2022-07-30T04:21:29.800Z,1005.26
2022-07-30T04:22:34.816Z,1005.19
2022-07-30T04:23:29.779Z,1005.22
2022-07-30T04:24:29.768Z,1005.31
2022-07-30T04:25:29.765Z,1005.23
2022-07-30T04:26:29.748Z,1005.29
2022-07-30T04:27:29.746Z,1005.24
2022-07-30T04:28:29.732Z,1005.27
2022-07-30T04:29:29.711Z,1005.29
2022-07-30T04:30:29.713Z,1005.32
2022-07-30T04:31:29.875Z,1005.31
2022-07-30T04:32:29.684Z,1005.35
2022-07-30T04:33:34.694Z,1005.37
2022-07-30T04:34:29.661Z,1005.41
2022-07-30T04:35:51.579Z,1005.44
2022-07-30T04:36:30.645Z,1005.44
2022-07-30T04:37:29.624Z,1005.45
2022-07-30T04:38:29.614Z,1005.40
2022-07-30T04:39:29.602Z,1005.50
2022-07-30T04:40:29.608Z,1005.45
2022-07-30T04:41:29.580Z,1005.41
2022-07-30T04:42:30.587Z,1005.53
2022-07-30T04:43:29.558Z,1005.54
2022-07-30T04:44:34.568Z,1005.55
2022-07-30T04:45:29.546Z,1005.57
2022-07-30T04:46:29.565Z,1005.54
2022-07-30T04:47:29.558Z,1005.60
2022-07-30T04:48:29.505Z,1005.62
2022-07-30T04:49:29.572Z,1005.63
2022-07-30T04:50:29.491Z,1005.59
2022-07-30T04:51:29.475Z,1005.64
2022-07-30T04:52:29.471Z,1005.65
2022-07-30T04:53:29.448Z,1005.67
2022-07-30T04:54:29.441Z,1005.59
2022-07-30T04:55:34.465Z,1005.62
2022-07-30T04:56:29.416Z,1005.67
2022-07-30T04:57:29.405Z,1005.60
2022-07-30T04:58:29.399Z,1005.57
2022-07-30T04:59:29.381Z,1005.66
2022-07-30T05:00:32.340Z,1005.70
2022-07-30T05:01:37.071Z,1005.73
2022-07-30T05:02:30.373Z,1005.73
2022-07-30T05:03:29.348Z,1005.65
2022-07-30T05:04:29.338Z,1005.70
2022-07-30T05:05:29.352Z,1005.69
2022-07-30T05:06:34.339Z,1005.68
2022-07-30T05:07:29.296Z,1005.72
2022-07-30T05:08:29.880Z,1005.68
2022-07-30T05:09:29.285Z,1005.66
2022-07-30T05:10:29.271Z,1005.72
2022-07-30T05:11:29.267Z,1005.72
2022-07-30T05:12:29.240Z,1005.68
2022-07-30T05:13:34.798Z,1005.66
2022-07-30T05:14:30.217Z,1005.72
2022-07-30T05:15:36.902Z,1005.68
2022-07-30T05:16:30.248Z,1005.69
2022-07-30T05:17:34.206Z,1005.75
2022-07-30T05:18:29.175Z,1005.77
2022-07-30T05:19:29.165Z,1005.69
2022-07-30T05:20:29.156Z,1005.70
2022-07-30T05:21:29.155Z,1005.72
2022-07-30T05:22:29.131Z,1005.72
2022-07-30T05:23:29.120Z,1005.77
2022-07-30T05:24:29.109Z,1005.76
2022-07-30T05:25:29.095Z,1005.80
2022-07-30T05:26:29.096Z,1005.83
2022-07-30T05:27:29.072Z,1005.89
2022-07-30T05:28:34.085Z,1005.84
2022-07-30T05:29:29.051Z,1005.87
2022-07-30T05:30:29.040Z,1005.83
2022-07-30T05:31:29.425Z,1005.85
2022-07-30T05:32:29.028Z,1005.88
2022-07-30T05:33:40.944Z,1005.86
2022-07-30T05:34:30.030Z,1005.92
2022-07-30T05:35:28.986Z,1005.82
2022-07-30T05:36:29.003Z,1005.88
2022-07-30T05:37:28.963Z,1005.93
2022-07-30T05:38:28.960Z,1005.82
2022-07-30T05:39:34.007Z,1005.89
2022-07-30T05:40:28.929Z,1005.89
2022-07-30T05:41:32.908Z,1005.93
2022-07-30T05:42:28.906Z,1005.87
2022-07-30T05:43:28.903Z,1005.91
2022-07-30T05:44:28.885Z,1005.88
2022-07-30T05:45:28.875Z,1005.87
2022-07-30T05:46:28.942Z,1005.83
2022-07-30T05:47:28.851Z,1005.93
2022-07-30T05:48:28.842Z,1005.87
2022-07-30T05:49:28.826Z,1005.92
2022-07-30T05:50:33.836Z,1005.87
2022-07-30T05:51:28.817Z,1005.89
2022-07-30T05:52:28.792Z,1005.85
2022-07-30T05:53:28.784Z,1005.84
2022-07-30T05:54:28.771Z,1005.86
2022-07-30T05:55:28.759Z,1005.84
2022-07-30T05:56:28.771Z,1005.83
2022-07-30T05:57:28.737Z,1005.87
2022-07-30T05:58:28.729Z,1005.84
2022-07-30T05:59:28.720Z,1005.94
2022-07-30T06:00:28.744Z,1005.84
2022-07-30T06:01:33.769Z,1005.89
2022-07-30T06:02:28.693Z,1005.90
2022-07-30T06:03:28.671Z,1005.85
2022-07-30T06:04:28.701Z,1005.83
2022-07-30T06:05:28.646Z,1005.93
2022-07-30T06:06:28.634Z,1005.89
2022-07-30T06:07:28.636Z,1005.87
2022-07-30T06:08:28.614Z,1005.89
2022-07-30T06:09:37.034Z,1005.93
2022-07-30T06:10:29.599Z,1005.88
2022-07-30T06:11:28.582Z,1005.91
2022-07-30T06:12:33.600Z,1005.89
2022-07-30T06:13:28.558Z,1005.89
2022-07-30T06:14:28.549Z,1005.97
2022-07-30T06:15:28.542Z,1005.93
2022-07-30T06:16:28.573Z,1005.93
2022-07-30T06:17:28.524Z,1005.99
2022-07-30T06:18:28.502Z,1005.99
2022-07-30T06:19:28.491Z,1005.97
2022-07-30T06:20:28.527Z,1005.96
2022-07-30T06:21:28.470Z,1005.96
2022-07-30T06:22:29.468Z,1006.00
2022-07-30T06:23:33.471Z,1006.02
2022-07-30T06:24:28.982Z,1005.96
2022-07-30T06:25:28.428Z,1005.95
2022-07-30T06:26:28.414Z,1006.04
2022-07-30T06:27:31.608Z,1005.99
2022-07-30T06:28:37.482Z,1006.01
2022-07-30T06:29:29.381Z,1006.04
2022-07-30T06:30:31.447Z,1006.05
2022-07-30T06:31:28.396Z,1006.07
2022-07-30T06:32:28.359Z,1006.05
2022-07-30T06:33:28.338Z,1006.10
2022-07-30T06:34:33.346Z,1006.05
2022-07-30T06:35:28.313Z,1006.11
2022-07-30T06:36:28.300Z,1006.05
2022-07-30T06:37:59.627Z,1006.09
2022-07-30T06:38:29.284Z,1006.09
2022-07-30T06:39:57.700Z,1006.12
2022-07-30T06:40:29.258Z,1006.18
2022-07-30T06:41:28.247Z,1006.12
2022-07-30T06:42:28.255Z,1006.15
2022-07-30T06:43:28.438Z,1006.18
2022-07-30T06:44:28.214Z,1006.13
2022-07-30T06:45:33.230Z,1006.10
2022-07-30T06:46:28.228Z,1006.20
2022-07-30T06:47:28.196Z,1006.22
2022-07-30T06:48:28.184Z,1006.15
2022-07-30T06:49:28.158Z,1006.19
2022-07-30T06:50:28.156Z,1006.19
2022-07-30T06:51:28.146Z,1006.20
2022-07-30T06:52:28.141Z,1006.22
2022-07-30T06:53:28.120Z,1006.22
2022-07-30T06:54:28.102Z,1006.26
2022-07-30T06:55:28.093Z,1006.25
2022-07-30T06:56:33.132Z,1006.23
2022-07-30T06:57:28.084Z,1006.30
2022-07-30T06:58:28.069Z,1006.27
2022-07-30T06:59:28.049Z,1006.23
2022-07-30T07:00:28.038Z,1006.32
2022-07-30T07:01:28.085Z,1006.27
2022-07-30T07:02:28.014Z,1006.29
2022-07-30T07:03:40.242Z,1006.28
2022-07-30T07:04:29.023Z,1006.30
2022-07-30T07:05:27.992Z,1006.32
2022-07-30T07:06:27.981Z,1006.30
2022-07-30T07:07:41.748Z,1006.29
2022-07-30T07:08:28.976Z,1006.34
2022-07-30T07:09:27.939Z,1006.35
2022-07-30T07:10:27.928Z,1006.33
2022-07-30T07:11:27.937Z,1006.37
2022-07-30T07:12:27.907Z,1006.37
2022-07-30T07:13:27.907Z,1006.36
2022-07-30T07:14:27.884Z,1006.40
2022-07-30T07:15:36.894Z,1006.38
2022-07-30T07:16:28.885Z,1006.32
2022-07-30T07:17:27.873Z,1006.35
2022-07-30T07:18:32.873Z,1006.37
2022-07-30T07:19:59.728Z,1006.33
2022-07-30T07:20:28.819Z,1006.41
2022-07-30T07:21:27.809Z,1006.32
2022-07-30T07:22:27.799Z,1006.40
2022-07-30T07:23:40.541Z,1006.31
2022-07-30T07:24:28.775Z,1006.36
2022-07-30T07:25:27.768Z,1006.29
2022-07-30T07:26:27.762Z,1006.33
2022-07-30T07:27:27.748Z,1006.38
2022-07-30T07:28:33.233Z,1006.31
2022-07-30T07:29:33.748Z,1006.39
2022-07-30T07:30:27.796Z,1006.40
2022-07-30T07:32:07.350Z,1006.36
2022-07-30T07:32:28.690Z,1006.34
2022-07-30T07:33:27.694Z,1006.42
2022-07-30T07:34:27.673Z,1006.35
2022-07-30T07:35:27.662Z,1006.40
2022-07-30T07:36:27.648Z,1006.36
2022-07-30T07:37:27.639Z,1006.44
2022-07-30T07:38:27.640Z,1006.36
2022-07-30T07:39:27.617Z,1006.40
2022-07-30T07:40:32.631Z,1006.36
2022-07-30T07:41:27.594Z,1006.36
2022-07-30T07:42:27.584Z,1006.34
2022-07-30T07:43:27.588Z,1006.36
2022-07-30T07:44:27.569Z,1006.35
2022-07-30T07:45:27.553Z,1006.36
2022-07-30T07:46:33.530Z,1006.32
2022-07-30T07:47:28.530Z,1006.43
2022-07-30T07:48:27.526Z,1006.36
2022-07-30T07:49:27.607Z,1006.37
2022-07-30T07:50:27.495Z,1006.35
2022-07-30T07:51:48.293Z,1006.40
2022-07-30T07:52:28.472Z,1006.36
2022-07-30T07:53:27.477Z,1006.27
2022-07-30T07:54:27.450Z,1006.37
2022-07-30T07:55:27.440Z,1006.40
2022-07-30T07:56:27.428Z,1006.37
2022-07-30T07:57:27.448Z,1006.39
2022-07-30T07:58:27.416Z,1006.39
2022-07-30T07:59:35.991Z,1006.38
2022-07-30T08:00:28.382Z,1006.39
2022-07-30T08:01:27.395Z,1006.41
2022-07-30T08:02:32.423Z,1006.35
2022-07-30T08:03:27.359Z,1006.34
2022-07-30T08:04:27.349Z,1006.41
2022-07-30T08:05:59.071Z,1006.42
2022-07-30T08:06:28.365Z,1006.37
2022-07-30T08:07:27.306Z,1006.45
2022-07-30T08:08:27.306Z,1006.42
2022-07-30T08:09:27.282Z,1006.41
2022-07-30T08:10:28.270Z,1006.36
2022-07-30T08:11:27.261Z,1006.40
2022-07-30T08:12:27.247Z,1006.40
2022-07-30T08:13:49.177Z,1006.42
2022-07-30T08:14:28.230Z,1006.41
2022-07-30T08:15:27.217Z,1006.33
2022-07-30T08:16:27.263Z,1006.35
2022-07-30T08:17:27.193Z,1006.40
2022-07-30T08:18:27.190Z,1006.31
2022-07-30T08:19:27.174Z,1006.36
2022-07-30T08:20:30.803Z,1006.38
2022-07-30T08:21:28.150Z,1006.40
2022-07-30T08:22:27.137Z,1006.44
2022-07-30T08:23:27.141Z,1006.41
2022-07-30T08:24:32.154Z,1006.38
2022-07-30T08:25:27.108Z,1006.35
2022-07-30T08:26:27.092Z,1006.46
2022-07-30T08:27:27.086Z,1006.38
2022-07-30T08:28:36.011Z,1006.42
2022-07-30T08:29:28.061Z,1006.40
2022-07-30T08:30:27.104Z,1006.41
2022-07-30T08:31:27.039Z,1006.40
2022-07-30T08:32:27.075Z,1006.43
2022-07-30T08:33:27.059Z,1006.39
2022-07-30T08:34:27.008Z,1006.37
2022-07-30T08:35:32.020Z,1006.33
2022-07-30T08:36:26.982Z,1006.35
2022-07-30T08:37:26.976Z,1006.36
2022-07-30T08:38:26.961Z,1006.35
2022-07-30T08:39:26.962Z,1006.27
2022-07-30T08:40:26.945Z,1006.31
2022-07-30T08:41:26.929Z,1006.38
2022-07-30T08:42:26.917Z,1006.41
2022-07-30T08:43:26.909Z,1006.30
2022-07-30T08:44:26.913Z,1006.35
2022-07-30T08:45:35.077Z,1006.35
2022-07-30T08:46:32.898Z,1006.31
2022-07-30T08:47:26.864Z,1006.32
2022-07-30T08:48:26.853Z,1006.31
2022-07-30T08:49:26.859Z,1006.33
2022-07-30T08:50:26.858Z,1006.28
2022-07-30T08:51:26.823Z,1006.30
2022-07-30T08:52:26.810Z,1006.32
2022-07-30T08:53:26.799Z,1006.28
2022-07-30T08:54:26.798Z,1006.31
2022-07-30T08:55:26.777Z,1006.35
2022-07-30T08:56:26.763Z,1006.28
2022-07-30T08:57:31.780Z,1006.28
2022-07-30T08:58:26.743Z,1006.30
2022-07-30T09:00:00.710Z,1006.27
2022-07-30T09:00:27.732Z,1006.31
2022-07-30T09:01:26.711Z,1006.23
2022-07-30T09:02:27.845Z,1006.23
2022-07-30T09:03:26.704Z,1006.28
2022-07-30T09:04:26.675Z,1006.26
2022-07-30T09:05:26.668Z,1006.24
2022-07-30T09:06:26.658Z,1006.28
2022-07-30T09:07:26.645Z,1006.24
2022-07-30T09:08:31.759Z,1006.24
2022-07-30T09:09:26.623Z,1006.22
2022-07-30T09:10:26.613Z,1006.28
2022-07-30T09:11:26.601Z,1006.28
2022-07-30T09:12:26.588Z,1006.27
2022-07-30T09:13:26.583Z,1006.24
2022-07-30T09:14:30.757Z,1006.27
2022-07-30T09:15:26.564Z,1006.30
2022-07-30T09:16:26.545Z,1006.31
2022-07-30T09:17:29.904Z,1006.26
2022-07-30T09:18:27.533Z,1006.33
2022-07-30T09:19:31.593Z,1006.29
2022-07-30T09:20:26.505Z,1006.28
2022-07-30T09:21:26.538Z,1006.29
2022-07-30T09:22:26.482Z,1006.27
2022-07-30T09:23:26.505Z,1006.26
2022-07-30T09:24:26.467Z,1006.31
2022-07-30T09:25:26.471Z,1006.29
2022-07-30T09:26:26.475Z,1006.28
2022-07-30T09:27:26.471Z,1006.24
2022-07-30T09:28:26.416Z,1006.26
2022-07-30T09:29:26.427Z,1006.28
2022-07-30T09:30:32.427Z,1006.33
2022-07-30T09:31:26.436Z,1006.40
2022-07-30T09:32:26.371Z,1006.31
2022-07-30T09:33:26.366Z,1006.27
2022-07-30T09:34:26.361Z,1006.30
2022-07-30T09:35:26.357Z,1006.33
2022-07-30T09:36:26.331Z,1006.32
2022-07-30T09:37:26.319Z,1006.43
2022-07-30T09:38:26.305Z,1006.35
2022-07-30T09:39:26.315Z,1006.32
2022-07-30T09:40:32.167Z,1006.27
2022-07-30T09:41:38.793Z,1006.47
2022-07-30T09:42:27.282Z,1006.38
2022-07-30T09:43:28.053Z,1006.35
2022-07-30T09:44:26.250Z,1006.32
2022-07-30T09:45:26.253Z,1006.43
2022-07-30T09:46:27.214Z,1006.35
2022-07-30T09:47:26.210Z,1006.53
2022-07-30T09:48:26.195Z,1006.10
2022-07-30T09:49:26.302Z,1006.25
2022-07-30T09:50:29.535Z,1006.24
2022-07-30T09:51:57.040Z,1006.34
2022-07-30T09:52:32.177Z,1006.29
2022-07-30T09:53:26.142Z,1006.16
2022-07-30T09:54:26.141Z,1006.19
2022-07-30T09:55:26.120Z,1006.23
2022-07-30T09:56:26.108Z,1006.18
2022-07-30T09:57:27.956Z,1006.16
2022-07-30T09:58:27.080Z,1006.23
2022-07-30T09:59:26.097Z,1006.20
2022-07-30T10:00:27.083Z,1006.27
2022-07-30T10:01:49.667Z,1006.24
2022-07-30T10:02:27.108Z,1006.24
2022-07-30T10:03:33.587Z,1006.13
2022-07-30T10:04:27.119Z,1006.28
2022-07-30T10:05:26.027Z,1006.16
2022-07-30T10:06:26.029Z,1006.16
2022-07-30T10:07:26.255Z,1006.14
2022-07-30T10:08:26.117Z,1006.16
2022-07-30T10:09:27.243Z,1006.13
2022-07-30T10:10:26.234Z,1006.17
2022-07-30T10:11:25.962Z,1006.04
2022-07-30T10:12:26.942Z,1006.08
2022-07-30T10:13:28.251Z,1006.13
2022-07-30T10:14:32.169Z,1006.07
2022-07-30T10:15:25.899Z,1006.01
2022-07-30T10:16:25.907Z,1006.06
2022-07-30T10:17:25.964Z,1006.09
2022-07-30T10:18:25.906Z,1006.05
2022-07-30T10:19:40.455Z,1006.09
2022-07-30T10:20:26.871Z,1006.05
2022-07-30T10:21:25.911Z,1006.06
2022-07-30T10:22:25.931Z,1006.05
2022-07-30T10:23:26.464Z,1006.02
2022-07-30T10:24:27.678Z,1006.04
2022-07-30T10:25:30.817Z,1006.03
2022-07-30T10:26:25.797Z,1006.03
2022-07-30T10:27:25.773Z,1006.01
2022-07-30T10:28:25.775Z,1006.07
2022-07-30T10:29:33.786Z,1006.03
2022-07-30T10:30:27.944Z,1005.98
2022-07-30T10:31:49.063Z,1006.08
2022-07-30T10:32:30.718Z,1006.02
2022-07-30T10:33:35.263Z,1006.11
2022-07-30T10:34:28.468Z,1006.04
2022-07-30T10:35:35.070Z,1005.95
2022-07-30T10:36:31.693Z,1005.97
2022-07-30T10:37:25.671Z,1005.99
2022-07-30T10:38:25.655Z,1005.95
2022-07-30T10:39:26.273Z,1005.96
2022-07-30T10:40:30.448Z,1005.94
2022-07-30T10:41:42.843Z,1005.91
2022-07-30T10:42:26.600Z,1005.92
2022-07-30T10:43:31.447Z,1005.90
2022-07-30T10:44:26.753Z,1005.89
2022-07-30T10:45:25.628Z,1005.93
2022-07-30T10:46:27.094Z,1005.95
2022-07-30T10:47:34.617Z,1005.98
2022-07-30T10:48:26.568Z,1005.92
2022-07-30T10:49:25.660Z,1005.96
2022-07-30T10:50:25.593Z,1005.86
2022-07-30T10:51:34.798Z,1005.87
2022-07-30T10:52:26.499Z,1005.83
2022-07-30T10:53:28.526Z,1005.82
2022-07-30T10:54:25.505Z,1005.78
2022-07-30T10:55:37.025Z,1005.92
2022-07-30T10:56:26.454Z,1005.69
2022-07-30T10:57:32.145Z,1005.80
2022-07-30T10:58:31.451Z,1005.76
2022-07-30T10:59:28.940Z,1005.79
2022-07-30T11:00:25.418Z,1005.69
2022-07-30T11:01:25.395Z,1005.81
2022-07-30T11:02:26.390Z,1005.87
2022-07-30T11:03:40.198Z,1005.86
2022-07-30T11:04:26.845Z,1005.69
2022-07-30T11:05:32.004Z,1005.83
2022-07-30T11:06:26.364Z,1005.77
2022-07-30T11:07:25.346Z,1005.78
2022-07-30T11:08:27.203Z,1005.79
2022-07-30T11:09:31.485Z,1005.78
2022-07-30T11:10:25.377Z,1005.81
2022-07-30T11:11:59.098Z,1005.76
2022-07-30T11:12:26.274Z,1005.85
2022-07-30T11:13:25.261Z,1005.69
2022-07-30T11:14:25.273Z,1005.86
2022-07-30T11:15:25.248Z,1005.80
2022-07-30T11:16:26.234Z,1005.93
2022-07-30T11:17:25.262Z,1006.00
2022-07-30T11:18:25.213Z,1006.19
2022-07-30T11:19:56.203Z,1005.80
2022-07-30T11:20:31.206Z,1006.10
2022-07-30T11:21:25.210Z,1006.03
2022-07-30T11:22:25.188Z,1006.12
2022-07-30T11:23:25.205Z,1006.04
2022-07-30T11:24:25.154Z,1006.08
2022-07-30T11:25:25.141Z,1006.08
2022-07-30T11:26:26.126Z,1006.14
2022-07-30T11:27:25.116Z,1006.08
2022-07-30T11:28:25.100Z,1006.08
2022-07-30T11:29:32.829Z,1006.04
2022-07-30T11:30:26.122Z,1006.07
2022-07-30T11:31:37.108Z,1006.04
2022-07-30T11:32:26.066Z,1005.77
2022-07-30T11:33:32.193Z,1005.75
2022-07-30T11:34:25.712Z,1005.74
2022-07-30T11:35:25.084Z,1005.83
2022-07-30T11:36:25.058Z,1005.99
2022-07-30T11:37:32.150Z,1005.84
2022-07-30T11:38:25.998Z,1005.80
2022-07-30T11:39:29.849Z,1005.75
2022-07-30T11:40:26.661Z,1005.80
2022-07-30T11:41:24.963Z,1005.66
2022-07-30T11:42:24.990Z,1005.65
2022-07-30T11:43:34.536Z,1005.58
2022-07-30T11:44:25.929Z,1005.70
2022-07-30T11:45:24.931Z,1005.68
2022-07-30T11:46:30.092Z,1005.59
2022-07-30T11:47:24.936Z,1005.57
2022-07-30T11:48:24.931Z,1005.60
2022-07-30T11:49:24.966Z,1005.60
2022-07-30T11:50:24.912Z,1005.60
2022-07-30T11:51:24.863Z,1005.59
2022-07-30T11:52:24.851Z,1005.57
2022-07-30T11:53:24.836Z,1005.60
2022-07-30T11:54:24.832Z,1005.50
2022-07-30T11:55:24.843Z,1005.58
2022-07-30T11:56:24.818Z,1005.62
2022-07-30T11:57:24.815Z,1005.67
2022-07-30T11:58:25.802Z,1005.56
2022-07-30T11:59:29.811Z,1005.79
2022-07-30T12:00:24.852Z,1005.52
2022-07-30T12:01:24.787Z,1005.45
2022-07-30T12:02:24.750Z,1005.47
2022-07-30T12:03:24.736Z,1005.47
2022-07-30T12:04:24.735Z,1005.69
2022-07-30T12:05:24.737Z,1005.45
2022-07-30T12:06:24.741Z,1005.47
2022-07-30T12:07:24.709Z,1005.40
2022-07-30T12:08:35.122Z,1005.44
2022-07-30T12:09:27.426Z,1005.47
2022-07-30T12:10:25.600Z,1005.46
2022-07-30T12:11:24.664Z,1005.47
2022-07-30T12:12:29.674Z,1005.39
2022-07-30T12:13:24.650Z,1005.42
2022-07-30T12:14:25.637Z,1005.40
2022-07-30T12:15:24.613Z,1005.60
2022-07-30T12:16:24.599Z,1005.53
2022-07-30T12:17:24.581Z,1005.74
2022-07-30T12:18:26.621Z,1005.82
2022-07-30T12:19:24.562Z,1005.76
2022-07-30T12:20:24.704Z,1005.73
2022-07-30T12:21:24.561Z,1005.70
2022-07-30T12:22:24.535Z,1005.68
2022-07-30T12:23:24.603Z,1005.55
2022-07-30T12:24:24.515Z,1005.67
2022-07-30T12:25:29.551Z,1005.71
2022-07-30T12:26:24.604Z,1005.68
2022-07-30T12:27:24.605Z,1005.33
2022-07-30T12:28:24.470Z,1005.41
2022-07-30T12:29:24.463Z,1005.25
2022-07-30T12:30:24.469Z,1005.32
2022-07-30T12:31:24.462Z,1005.28
2022-07-30T12:32:24.442Z,1005.50
2022-07-30T12:33:24.414Z,1005.42
2022-07-30T12:34:24.402Z,1005.30
2022-07-30T12:35:24.403Z,1005.38
2022-07-30T12:36:24.425Z,1005.39
2022-07-30T12:37:24.381Z,1005.29
2022-07-30T12:38:29.397Z,1005.28
2022-07-30T12:39:24.376Z,1005.27
2022-07-30T12:40:24.386Z,1005.23
2022-07-30T12:41:24.342Z,1005.28
2022-07-30T12:42:24.326Z,1005.22
2022-07-30T12:43:24.322Z,1005.20
2022-07-30T12:44:24.354Z,1005.17
2022-07-30T12:45:24.400Z,1005.19
2022-07-30T12:46:24.282Z,1005.23
2022-07-30T12:47:24.413Z,1005.13
2022-07-30T12:48:24.265Z,1005.10
2022-07-30T12:49:24.301Z,1005.13
2022-07-30T12:50:25.267Z,1005.15
2022-07-30T12:51:29.250Z,1005.15
2022-07-30T12:52:27.890Z,1005.13
2022-07-30T12:53:24.633Z,1005.17
2022-07-30T12:54:24.990Z,1005.10
2022-07-30T12:55:24.949Z,1005.12
2022-07-30T12:56:25.454Z,1005.12
2022-07-30T12:57:24.949Z,1005.12
2022-07-30T12:58:24.954Z,1005.09
2022-07-30T12:59:24.138Z,1005.14
2022-07-30T13:00:24.225Z,1005.03
2022-07-30T13:01:24.233Z,1005.04
2022-07-30T13:02:24.108Z,1005.02
2022-07-30T13:03:24.093Z,1005.04
2022-07-30T13:04:29.113Z,1005.05
2022-07-30T13:05:24.092Z,1005.07
2022-07-30T13:06:24.098Z,1004.98
2022-07-30T13:07:24.047Z,1005.00
2022-07-30T13:08:24.041Z,1005.01
2022-07-30T13:09:24.029Z,1004.95
2022-07-30T13:10:28.492Z,1004.99
2022-07-30T13:11:25.033Z,1005.00
2022-07-30T13:12:24.011Z,1005.00
2022-07-30T13:13:23.984Z,1004.99
2022-07-30T13:14:26.731Z,1004.91
2022-07-30T13:15:23.974Z,1004.92
2022-07-30T13:16:23.964Z,1004.96
2022-07-30T13:17:28.967Z,1005.06
2022-07-30T13:18:23.964Z,1005.01
2022-07-30T13:19:23.976Z,1004.96
2022-07-30T13:20:23.909Z,1004.93
2022-07-30T13:21:23.923Z,1004.91
2022-07-30T13:22:23.901Z,1004.96
2022-07-30T13:23:23.882Z,1004.99
2022-07-30T13:24:23.892Z,1004.88
2022-07-30T13:25:23.856Z,1004.98
2022-07-30T13:26:23.855Z,1004.92
2022-07-30T13:27:23.843Z,1004.88
2022-07-30T13:28:23.822Z,1004.87
2022-07-30T13:29:23.817Z,1004.90
2022-07-30T13:30:28.846Z,1004.86
2022-07-30T13:31:23.853Z,1004.92
2022-07-30T13:32:23.780Z,1004.85
2022-07-30T13:33:23.768Z,1004.83
2022-07-30T13:34:23.765Z,1004.85
2022-07-30T13:35:23.775Z,1004.84
2022-07-30T13:36:23.764Z,1004.85
2022-07-30T13:37:23.813Z,1004.80
2022-07-30T13:38:24.719Z,1004.81
2022-07-30T13:39:23.705Z,1004.82
2022-07-30T13:40:23.708Z,1004.80
2022-07-30T13:41:28.732Z,1004.75
2022-07-30T13:42:23.678Z,1004.80
2022-07-30T13:43:23.713Z,1004.77
2022-07-30T13:44:23.657Z,1004.72
2022-07-30T13:45:23.637Z,1004.69
2022-07-30T13:46:23.638Z,1004.75
2022-07-30T13:47:23.619Z,1004.75
2022-07-30T13:48:23.606Z,1004.77
2022-07-30T13:49:23.664Z,1004.79
2022-07-30T13:50:23.618Z,1004.78
2022-07-30T13:51:23.602Z,1004.80
2022-07-30T13:52:28.625Z,1004.73
2022-07-30T13:53:23.562Z,1004.74
2022-07-30T13:54:23.555Z,1004.74
2022-07-30T13:55:23.529Z,1004.63
2022-07-30T13:56:23.525Z,1004.74
2022-07-30T13:57:23.527Z,1004.72
2022-07-30T13:58:23.507Z,1004.76
2022-07-30T13:59:23.499Z,1004.81
2022-07-30T14:00:23.504Z,1004.74
2022-07-30T14:01:23.526Z,1004.75
2022-07-30T14:02:23.478Z,1004.79
2022-07-30T14:03:28.469Z,1004.76
2022-07-30T14:04:23.466Z,1004.77
2022-07-30T14:05:23.430Z,1004.75
2022-07-30T14:06:23.416Z,1004.66
2022-07-30T14:07:23.421Z,1004.67
2022-07-30T14:08:23.392Z,1004.68
2022-07-30T14:09:23.405Z,1004.58
2022-07-30T14:10:23.375Z,1004.57
2022-07-30T14:11:23.359Z,1004.58
2022-07-30T14:12:23.377Z,1004.58
2022-07-30T14:13:23.340Z,1004.58
2022-07-30T14:14:28.357Z,1004.59
2022-07-30T14:15:23.319Z,1004.63
2022-07-30T14:16:44.071Z,1004.63
2022-07-30T14:17:24.324Z,1004.70
2022-07-30T14:18:23.288Z,1004.61
2022-07-30T14:19:24.546Z,1004.66
2022-07-30T14:20:23.264Z,1004.68
2022-07-30T14:21:23.265Z,1004.67
2022-07-30T14:22:23.269Z,1004.64
2022-07-30T14:23:23.228Z,1004.56
2022-07-30T14:24:23.279Z,1004.58
2022-07-30T14:25:28.241Z,1004.57
2022-07-30T14:26:23.208Z,1004.54
2022-07-30T14:27:23.213Z,1004.50
2022-07-30T14:28:23.182Z,1004.49
2022-07-30T14:29:23.208Z,1004.52
2022-07-30T14:30:23.155Z,1004.51
2022-07-30T14:31:23.145Z,1004.56
2022-07-30T14:32:23.362Z,1004.60
2022-07-30T14:33:23.154Z,1004.54
2022-07-30T14:34:23.117Z,1004.52
2022-07-30T14:35:23.139Z,1004.51
2022-07-30T14:36:28.138Z,1004.45
2022-07-30T14:37:23.100Z,1004.47
2022-07-30T14:38:23.105Z,1004.51
2022-07-30T14:39:23.068Z,1004.48
2022-07-30T14:40:23.043Z,1004.51
2022-07-30T14:41:23.048Z,1004.48
2022-07-30T14:42:23.024Z,1004.54
2022-07-30T14:43:23.034Z,1004.55
2022-07-30T14:44:23.004Z,1004.52
2022-07-30T14:45:23.012Z,1004.49
2022-07-30T14:46:22.983Z,1004.50
2022-07-30T14:47:28.013Z,1004.61
2022-07-30T14:48:22.980Z,1004.60
2022-07-30T14:49:24.128Z,1004.48
2022-07-30T14:50:22.935Z,1004.46
2022-07-30T14:51:26.275Z,1004.49
2022-07-30T14:52:22.915Z,1004.46
2022-07-30T14:53:22.934Z,1004.45
2022-07-30T14:54:22.911Z,1004.50
2022-07-30T14:55:22.888Z,1004.47
2022-07-30T14:56:22.884Z,1004.46
2022-07-30T14:57:22.901Z,1004.48
2022-07-30T14:58:27.883Z,1004.45
2022-07-30T14:59:22.847Z,1004.49
2022-07-30T15:00:24.415Z,1004.44
2022-07-30T15:01:22.863Z,1004.51
2022-07-30T15:02:22.805Z,1004.45
2022-07-30T15:03:23.002Z,1004.58
2022-07-30T15:04:22.785Z,1004.48
2022-07-30T15:05:22.788Z,1004.53
2022-07-30T15:06:22.878Z,1004.47
2022-07-30T15:07:22.758Z,1004.49
2022-07-30T15:08:22.783Z,1004.52
2022-07-30T15:09:27.776Z,1004.53
2022-07-30T15:10:22.722Z,1004.43
2022-07-30T15:11:22.747Z,1004.41
2022-07-30T15:12:26.799Z,1004.45
2022-07-30T15:13:22.737Z,1004.42
2022-07-30T15:14:22.722Z,1004.47
2022-07-30T15:15:22.711Z,1004.43
2022-07-30T15:16:22.659Z,1004.41
2022-07-30T15:17:22.654Z,1004.46
2022-07-30T15:18:22.702Z,1004.44
2022-07-30T15:19:22.640Z,1004.41
2022-07-30T15:20:27.644Z,1004.44
2022-07-30T15:21:22.610Z,1004.43
2022-07-30T15:22:22.598Z,1004.48
2022-07-30T15:23:22.624Z,1004.46
2022-07-30T15:24:22.581Z,1004.41
2022-07-30T15:25:22.561Z,1004.40
2022-07-30T15:26:22.604Z,1004.44
2022-07-30T15:27:31.772Z,1004.43
2022-07-30T15:28:23.562Z,1004.39
2022-07-30T15:29:22.532Z,1004.40
2022-07-30T15:30:22.514Z,1004.38
2022-07-30T15:31:27.534Z,1004.49
2022-07-30T15:32:22.584Z,1004.50
2022-07-30T15:33:22.503Z,1004.43
2022-07-30T15:34:22.474Z,1004.56
2022-07-30T15:35:22.459Z,1004.53
2022-07-30T15:36:22.437Z,1004.45
2022-07-30T15:37:22.431Z,1004.48
2022-07-30T15:38:22.442Z,1004.52
2022-07-30T15:39:22.409Z,1004.49
2022-07-30T15:40:22.402Z,1004.51
2022-07-30T15:41:22.387Z,1004.42
2022-07-30T15:42:27.434Z,1004.47
2022-07-30T15:43:22.403Z,1004.48
2022-07-30T15:44:22.355Z,1004.43
2022-07-30T15:45:22.369Z,1004.43
2022-07-30T15:46:22.348Z,1004.48
2022-07-30T15:47:22.333Z,1004.49
2022-07-30T15:48:26.777Z,1004.52
2022-07-30T15:49:23.383Z,1004.54
2022-07-30T15:50:22.301Z,1004.53
2022-07-30T15:51:22.296Z,1004.42
2022-07-30T15:52:22.272Z,1004.47
2022-07-30T15:53:27.315Z,1004.46
2022-07-30T15:54:23.049Z,1004.44
2022-07-30T15:55:22.247Z,1004.41
2022-07-30T15:56:22.235Z,1004.43
2022-07-30T15:57:22.221Z,1004.49
2022-07-30T15:58:22.275Z,1004.50
2022-07-30T15:59:22.262Z,1004.47
2022-07-30T16:00:22.193Z,1004.46
2022-07-30T16:01:22.232Z,1004.45
2022-07-30T16:02:22.191Z,1004.51
2022-07-30T16:03:22.196Z,1004.46
2022-07-30T16:04:31.166Z,1004.47
2022-07-30T16:05:22.147Z,1004.36